createdAt,value
2023-01-15T00:00:18.947Z,99318.97
2023-01-15T00:02:45.443Z,99329.97
2023-01-15T00:05:11.953Z,99336.84
2023-01-15T00:07:38.377Z,99330.72
2023-01-15T00:10:05.189Z,99326.91
2023-01-15T00:12:31.609Z,99331.53
2023-01-15T00:14:58.345Z,99327.19
2023-01-15T00:17:24.935Z,99327.84
2023-01-15T00:19:51.342Z,99320.75
2023-01-15T00:22:17.906Z,99328.34
2023-01-15T00:25:02.903Z,99319.97
2023-01-15T00:27:41.811Z,99325.19
2023-01-15T00:30:11.542Z,99315.00
2023-01-15T00:32:38.797Z,99329.38
2023-01-15T00:35:05.773Z,99344.53
2023-01-15T00:37:32.187Z,99335.81
2023-01-15T00:39:58.598Z,99336.56
2023-01-15T00:42:25.000Z,99337.31
2023-01-15T00:44:51.507Z,99347.44
2023-01-15T00:47:18.080Z,99345.13
2023-01-15T00:49:44.638Z,99345.13
2023-01-15T00:52:12.144Z,99354.69
2023-01-15T00:54:38.553Z,99357.00
2023-01-15T00:57:05.081Z,99350.66
2023-01-15T00:59:31.499Z,99356.06
2023-01-15T01:01:57.987Z,99358.78
2023-01-15T01:04:24.510Z,99350.78
2023-01-15T01:06:50.973Z,99348.28
2023-01-15T01:09:17.427Z,99350.78
2023-01-15T01:11:44.005Z,99363.69
2023-01-15T01:14:11.559Z,99365.25
2023-01-15T01:16:39.577Z,99356.06
2023-01-15T01:19:20.479Z,99355.66
2023-01-15T01:21:47.839Z,99368.84
2023-01-15T01:24:17.472Z,99367.34
2023-01-15T01:26:45.205Z,99376.13
2023-01-15T01:29:16.002Z,99365.09
2023-01-15T01:31:42.805Z,99372.44
2023-01-15T01:34:10.819Z,99365.84
2023-01-15T01:36:39.944Z,99369.66
2023-01-15T01:39:07.804Z,99370.81
2023-01-15T01:41:34.615Z,99368.09
2023-01-15T01:44:02.924Z,99365.44
2023-01-15T01:46:34.510Z,99368.00
2023-01-15T01:49:05.784Z,99352.28
2023-01-15T01:51:40.220Z,99359.69
2023-01-15T01:54:07.649Z,99347.53
2023-01-15T01:56:36.251Z,99359.97
2023-01-15T01:59:03.475Z,99355.88
2023-01-15T02:01:30.484Z,99358.88
2023-01-15T02:03:57.768Z,99362.53
2023-01-15T02:06:26.001Z,99370.22
2023-01-15T02:08:52.876Z,99362.53
2023-01-15T02:11:21.705Z,99361.84
2023-01-15T02:14:09.892Z,99362.81
2023-01-15T02:16:51.766Z,99353.03
2023-01-15T02:19:30.573Z,99360.63
2023-01-15T02:22:03.042Z,99358.41
2023-01-15T02:24:54.155Z,99366.66
2023-01-15T02:27:24.011Z,99352.47
2023-01-15T02:30:13.461Z,99370.28
2023-01-15T02:32:50.860Z,99366.66
2023-01-15T02:35:25.127Z,99362.13
2023-01-15T02:37:55.588Z,99366.34
2023-01-15T02:40:23.344Z,99359.69
2023-01-15T02:42:50.149Z,99370.41
2023-01-15T02:45:24.126Z,99372.81
2023-01-15T02:47:52.140Z,99381.75
2023-01-15T02:50:23.113Z,99368.25
2023-01-15T02:52:52.145Z,99373.88
2023-01-15T02:55:23.347Z,99362.31
2023-01-15T02:57:50.535Z,99350.88
2023-01-15T03:00:19.077Z,99354.78
2023-01-15T03:02:57.803Z,99355.63
2023-01-15T03:05:28.149Z,99359.41
2023-01-15T03:07:57.724Z,99354.44
2023-01-15T03:11:09.372Z,99362.41
2023-01-15T03:13:45.715Z,99342.38
2023-01-15T03:16:35.373Z,99340.38
2023-01-15T03:19:18.205Z,99346.97
2023-01-15T03:21:57.135Z,99342.50
2023-01-15T03:24:47.864Z,99341.69
2023-01-15T03:27:15.393Z,99340.84
2023-01-15T03:29:45.204Z,99334.97
2023-01-15T03:32:11.646Z,99333.06
2023-01-15T03:34:51.075Z,99322.78
2023-01-15T03:37:18.761Z,99326.44
2023-01-15T03:39:45.390Z,99317.69
2023-01-15T03:42:20.689Z,99313.66
2023-01-15T03:44:57.961Z,99311.56
2023-01-15T03:47:45.937Z,99327.63
2023-01-15T03:50:25.046Z,99316.88
2023-01-15T03:53:05.183Z,99327.88
2023-01-15T03:55:52.582Z,99320.69
2023-01-15T03:58:41.874Z,99313.06
2023-01-15T04:01:11.256Z,99318.72
2023-01-15T04:03:37.934Z,99314.16
2023-01-15T04:06:04.720Z,99303.13
2023-01-15T04:08:34.000Z,99306.53
2023-01-15T04:11:01.824Z,99308.94
2023-01-15T04:13:31.251Z,99298.34
2023-01-15T04:15:58.181Z,99296.66
2023-01-15T04:18:24.659Z,99295.94
2023-01-15T04:20:51.389Z,99309.41
2023-01-15T04:23:17.978Z,99300.22
2023-01-15T04:25:44.446Z,99284.22
2023-01-15T04:28:11.029Z,99310.38
2023-01-15T04:30:37.628Z,99319.31
2023-01-15T04:33:04.201Z,99320.06
2023-01-15T04:35:30.819Z,99318.38
2023-01-15T04:38:00.713Z,99315.50
2023-01-15T04:40:46.327Z,99308.38
2023-01-15T04:43:32.472Z,99310.53
2023-01-15T04:45:59.486Z,99291.13
2023-01-15T04:48:26.257Z,99306.28
2023-01-15T04:50:52.755Z,99298.66
2023-01-15T04:53:19.178Z,99304.97
2023-01-15T04:55:45.656Z,99298.47
2023-01-15T04:58:12.201Z,99288.22
2023-01-15T05:00:38.786Z,99296.53
2023-01-15T05:03:05.166Z,99282.56
2023-01-15T05:05:32.682Z,99288.47
2023-01-15T05:07:59.150Z,99288.69
2023-01-15T05:10:25.664Z,99283.38
2023-01-15T05:12:52.048Z,99284.22
2023-01-15T05:15:18.455Z,99274.03
2023-01-15T05:17:44.876Z,99281.22
2023-01-15T05:20:11.819Z,99280.28
2023-01-15T05:22:38.315Z,99276.22
2023-01-15T05:25:05.136Z,99285.56
2023-01-15T05:27:31.560Z,99283.81
2023-01-15T05:29:57.994Z,99263.75
2023-01-15T05:32:24.468Z,99275.66
2023-01-15T05:34:50.877Z,99273.75
2023-01-15T05:37:17.308Z,99281.28
2023-01-15T05:39:43.736Z,99275.59
2023-01-15T05:42:10.181Z,99272.72
2023-01-15T05:44:36.608Z,99276.50
2023-01-15T05:47:05.759Z,99274.75
2023-01-15T05:49:32.275Z,99277.81
2023-01-15T05:52:00.470Z,99286.94
2023-01-15T05:54:29.457Z,99290.44
2023-01-15T05:56:56.109Z,99294.56
2023-01-15T05:59:25.048Z,99293.16
2023-01-15T06:01:52.333Z,99298.06
2023-01-15T06:04:21.252Z,99283.97
2023-01-15T06:06:49.148Z,99293.16
2023-01-15T06:09:15.766Z,99292.03
2023-01-15T06:11:42.231Z,99299.22
2023-01-15T06:14:08.885Z,99298.06
2023-01-15T06:16:35.315Z,99291.47
2023-01-15T06:19:04.331Z,99289.22
2023-01-15T06:21:32.064Z,99293.38
2023-01-15T06:23:58.652Z,99290.72
2023-01-15T06:26:25.410Z,99293.03
2023-01-15T06:28:52.158Z,99295.03
2023-01-15T06:31:20.481Z,99302.97
2023-01-15T06:33:46.985Z,99285.50
2023-01-15T06:36:21.584Z,99288.56
2023-01-15T06:38:48.821Z,99285.22
2023-01-15T06:41:40.487Z,99282.03
2023-01-15T06:44:30.795Z,99283.16
2023-01-15T06:47:15.968Z,99287.13
2023-01-15T06:49:42.434Z,99274.91
2023-01-15T06:52:08.836Z,99289.06
2023-01-15T06:54:36.783Z,99283.91
2023-01-15T06:57:03.488Z,99268.78
2023-01-15T06:59:30.175Z,99280.03
2023-01-15T07:01:56.693Z,99267.97
2023-01-15T07:04:23.315Z,99269.75
2023-01-15T07:06:49.829Z,99274.97
2023-01-15T07:09:16.335Z,99273.56
2023-01-15T07:11:51.928Z,99271.34
2023-01-15T07:14:20.147Z,99269.75
2023-01-15T07:16:47.576Z,99268.22
2023-01-15T07:19:14.249Z,99274.25
2023-01-15T07:21:41.154Z,99277.38
2023-01-15T07:24:08.122Z,99271.44
2023-01-15T07:26:34.964Z,99280.19
2023-01-15T07:29:01.460Z,99280.69
2023-01-15T07:31:27.968Z,99260.00
2023-01-15T07:33:56.528Z,99267.69
2023-01-15T07:36:23.652Z,99283.66
2023-01-15T07:38:50.388Z,99281.06
2023-01-15T07:41:36.393Z,99279.16
2023-01-15T07:44:21.481Z,99291.88
2023-01-15T07:47:06.482Z,99287.84
2023-01-15T07:49:51.200Z,99288.59
2023-01-15T07:52:22.325Z,99296.38
2023-01-15T07:54:50.466Z,99290.75
2023-01-15T07:57:19.417Z,99289.75
2023-01-15T07:59:45.909Z,99290.75
2023-01-15T08:02:13.110Z,99292.97
2023-01-15T08:04:39.619Z,99284.72
2023-01-15T08:07:06.068Z,99285.09
2023-01-15T08:09:32.825Z,99286.53
2023-01-15T08:12:18.884Z,99284.38
2023-01-15T08:15:04.499Z,99280.66
2023-01-15T08:17:33.777Z,99293.03
2023-01-15T08:20:00.544Z,99288.34
2023-01-15T08:22:27.767Z,99294.03
2023-01-15T08:24:54.215Z,99296.41
2023-01-15T08:27:20.632Z,99272.38
2023-01-15T08:29:47.097Z,99283.75
2023-01-15T08:32:13.541Z,99295.81
2023-01-15T08:34:39.995Z,99277.72
2023-01-15T08:37:06.633Z,99288.38
2023-01-15T08:39:33.678Z,99283.16
2023-01-15T08:42:00.117Z,99288.66
2023-01-15T08:44:26.645Z,99285.22
2023-01-15T08:46:53.616Z,99290.13
2023-01-15T08:49:21.236Z,99290.13
2023-01-15T08:51:51.588Z,99293.25
2023-01-15T08:54:19.755Z,99276.31
2023-01-15T08:56:46.714Z,99282.69
2023-01-15T08:59:13.205Z,99287.22
2023-01-15T09:01:41.032Z,99281.94
2023-01-15T09:04:07.647Z,99277.72
2023-01-15T09:06:34.179Z,99273.53
2023-01-15T09:09:00.731Z,99284.69
2023-01-15T09:11:27.370Z,99295.28
2023-01-15T09:13:54.399Z,99297.91
2023-01-15T09:16:20.883Z,99295.28
2023-01-15T09:18:47.307Z,99288.38
2023-01-15T09:21:13.765Z,99285.31
2023-01-15T09:23:40.173Z,99292.84
2023-01-15T09:26:07.958Z,99300.22
2023-01-15T09:28:34.868Z,99302.34
2023-01-15T09:31:01.848Z,99280.34
2023-01-15T09:33:28.514Z,99299.75
2023-01-15T09:35:54.968Z,99288.78
2023-01-15T09:38:21.838Z,99282.50
2023-01-15T09:40:57.841Z,99295.72
2023-01-15T09:43:51.201Z,99317.25
2023-01-15T09:46:22.010Z,99315.91
2023-01-15T09:49:04.243Z,99312.22
2023-01-15T09:51:58.346Z,99298.38
2023-01-15T09:54:59.904Z,99294.97
2023-01-15T09:57:27.758Z,99308.28
2023-01-15T10:00:00.983Z,99300.06
2023-01-15T10:02:42.784Z,99307.88
2023-01-15T10:05:19.719Z,99302.78
2023-01-15T10:08:21.554Z,99317.13
